KAUW/AUW METAR and TAF weather

Enter ICAO airport designator
Station Type Date Time Source
KAUW METAR 2018/07/16 23:54 UTC NOAA

KAUW 162354Z AUTO 31014G21KT 10SM -RA FEW080 27/11 A2994 RMK AO2 PK WND 31028/2255 SLP136 P0000 60000 T02670106 10289 20261 55002 $


Station Type Date Time Source
KAUW Decoded METAR 2018/07/16 23:54 UTC NOAA

WAUSAU DOWNTOWN AIRPORT, WI, United States (KAUW) 44-56N 089-37W 362M
Jul 16, 2018 - 07:54 PM EDT / 2018.07.16 2354 UTC
Wind: from the NW (310 degrees) at 16 MPH (14 KT) gusting to 24 MPH (21 KT):0
Visibility: 10 mile(s):0
Sky conditions: mostly clear
Weather: light rain
Precipitation last hour: A trace
Temperature: 80.1 F (26.7 C)
Dew Point: 51.1 F (10.6 C)
Relative Humidity: 36%
Pressure (altimeter): 29.94 in. Hg (1013 hPa)
Pressure tendency: 0.01 inches (0.2 hPa) lower than three hours ago
ob: KAUW 162354Z AUTO 31014G21KT 10SM -RA FEW080 27/11 A2994 RMK AO2 PK WND 31028/2255 SLP136 P0000 60000 T02670106 10289 20261 55002
cycle: 0

Station Type Date Time Source
KAUW TAF 2018/07/16 18:24 UTC NOAA

TAF KAUW 161721Z 1618/1718 29012G18KT P6SM FEW060
FM170100 30006KT P6SM SKC
FM170800 34003KT P6SM SKC
FM171500 33007KT P6SM SKC


Example: see airport list